createdAt,value
2018-11-07T00:00:48.982Z,99.90
2018-11-07T00:03:18.526Z,99.90
2018-11-07T00:05:47.962Z,99.90
2018-11-07T00:08:17.657Z,99.90
2018-11-07T00:10:46.816Z,99.90
2018-11-07T00:13:16.023Z,99.90
2018-11-07T00:15:45.250Z,99.90
2018-11-07T00:18:14.457Z,99.90
2018-11-07T00:20:43.662Z,99.90
2018-11-07T00:23:12.853Z,99.90
2018-11-07T00:25:42.046Z,99.90
2018-11-07T00:28:11.540Z,99.90
2018-11-07T00:30:40.692Z,99.90
2018-11-07T00:33:09.914Z,99.90
2018-11-07T00:35:39.129Z,99.90
2018-11-07T00:38:08.333Z,99.90
2018-11-07T00:40:37.526Z,99.90
2018-11-07T00:43:06.727Z,99.90
2018-11-07T00:45:36.010Z,99.90
2018-11-07T00:48:05.226Z,99.90
2018-11-07T00:50:34.414Z,99.90
2018-11-07T00:53:03.617Z,99.90
2018-11-07T00:55:32.797Z,99.90
2018-11-07T00:58:02.027Z,99.90
2018-11-07T01:00:31.228Z,99.90
2018-11-07T01:03:00.494Z,99.90
2018-11-07T01:05:29.762Z,99.90
2018-11-07T01:07:58.994Z,99.90
2018-11-07T01:10:28.246Z,99.90
2018-11-07T01:12:57.450Z,99.90
2018-11-07T01:15:26.640Z,99.90
2018-11-07T01:17:55.860Z,99.90
2018-11-07T01:20:25.050Z,99.90
2018-11-07T01:22:54.273Z,99.90
2018-11-07T01:25:23.483Z,99.90
2018-11-07T01:27:52.673Z,99.90
2018-11-07T01:30:21.954Z,99.90
2018-11-07T01:32:51.140Z,99.90
2018-11-07T01:35:20.406Z,99.90
2018-11-07T01:37:49.639Z,99.90
2018-11-07T01:40:18.842Z,99.90
2018-11-07T01:42:48.087Z,99.90
2018-11-07T01:45:17.291Z,99.90
2018-11-07T01:47:46.497Z,99.90
2018-11-07T01:50:15.695Z,99.90
2018-11-07T01:52:44.953Z,99.90
2018-11-07T01:55:14.148Z,99.90
2018-11-07T01:57:43.410Z,99.90
2018-11-07T02:00:12.928Z,99.90
2018-11-07T02:02:43.425Z,99.90
2018-11-07T02:05:13.159Z,99.90
2018-11-07T02:07:42.762Z,99.90
2018-11-07T02:10:12.026Z,99.90
2018-11-07T02:12:41.763Z,99.90
2018-11-07T02:15:11.416Z,99.90
2018-11-07T02:17:40.879Z,99.90
2018-11-07T02:20:11.074Z,99.90
2018-11-07T02:22:40.600Z,99.90
2018-11-07T02:25:09.907Z,99.90
2018-11-07T02:27:39.722Z,99.90
2018-11-07T02:30:12.825Z,99.90
2018-11-07T02:32:43.077Z,99.90
2018-11-07T02:35:12.365Z,99.90
2018-11-07T02:37:42.007Z,99.90
2018-11-07T02:40:11.214Z,99.90
2018-11-07T02:42:40.422Z,99.90
2018-11-07T02:45:09.609Z,99.90
2018-11-07T02:47:39.261Z,99.90
2018-11-07T02:50:09.382Z,99.90
2018-11-07T02:52:38.634Z,99.90
2018-11-07T02:55:07.972Z,99.90
2018-11-07T02:57:37.241Z,99.90
2018-11-07T03:00:09.313Z,99.90
2018-11-07T03:02:38.506Z,99.90
2018-11-07T03:05:07.898Z,99.90
2018-11-07T03:07:38.237Z,99.90
2018-11-07T03:10:09.494Z,99.90
2018-11-07T03:12:39.005Z,99.90
2018-11-07T03:15:09.120Z,99.90
2018-11-07T03:17:38.715Z,99.90
2018-11-07T03:20:09.643Z,99.90
2018-11-07T03:22:38.854Z,99.90
2018-11-07T03:25:08.053Z,99.90
2018-11-07T03:27:37.227Z,99.90
2018-11-07T03:30:07.810Z,99.90
2018-11-07T03:32:37.006Z,99.90
2018-11-07T03:35:10.694Z,99.90
2018-11-07T03:37:40.246Z,99.90
2018-11-07T03:40:09.436Z,99.90
2018-11-07T03:42:38.641Z,99.90
2018-11-07T03:45:07.882Z,99.90
2018-11-07T03:47:37.693Z,99.90
2018-11-07T03:50:06.901Z,99.90
2018-11-07T03:52:36.124Z,99.90
2018-11-07T03:55:07.141Z,99.90
2018-11-07T03:57:37.061Z,99.90
2018-11-07T04:00:07.989Z,99.90
2018-11-07T04:02:37.193Z,99.90
2018-11-07T04:05:07.943Z,99.90
2018-11-07T04:07:37.113Z,99.90
2018-11-07T04:10:06.297Z,99.90
2018-11-07T04:12:35.422Z,99.90
2018-11-07T04:15:05.008Z,99.90
2018-11-07T04:17:34.190Z,99.90
2018-11-07T04:20:03.473Z,99.90
2018-11-07T04:22:32.637Z,99.90
2018-11-07T04:25:01.810Z,99.90
2018-11-07T04:27:31.109Z,99.90
2018-11-07T04:30:00.272Z,99.90
2018-11-07T04:32:29.415Z,99.90
2018-11-07T04:34:58.638Z,99.90
2018-11-07T04:37:27.813Z,99.90
2018-11-07T04:39:56.981Z,99.90
2018-11-07T04:42:26.125Z,99.90
2018-11-07T04:44:55.305Z,99.90
2018-11-07T04:47:24.478Z,99.90
2018-11-07T04:49:53.601Z,99.90
2018-11-07T04:52:22.745Z,99.90
2018-11-07T04:54:51.964Z,99.90
2018-11-07T04:57:21.091Z,99.90
2018-11-07T04:59:50.249Z,99.90
2018-11-07T05:02:19.518Z,99.90
2018-11-07T05:04:48.738Z,99.90
2018-11-07T05:07:17.943Z,99.90
2018-11-07T05:09:47.122Z,99.90
2018-11-07T05:12:16.259Z,99.90
2018-11-07T05:14:45.393Z,99.90
2018-11-07T05:17:14.612Z,99.90
2018-11-07T05:19:43.834Z,99.90
2018-11-07T05:22:12.878Z,99.90
2018-11-07T05:24:42.025Z,99.90
2018-11-07T05:27:11.265Z,99.90
2018-11-07T05:29:40.428Z,99.90
2018-11-07T05:32:09.744Z,99.90
2018-11-07T05:34:38.997Z,99.90
2018-11-07T05:37:08.354Z,99.90
2018-11-07T05:39:37.559Z,99.90
2018-11-07T05:42:06.781Z,99.90
2018-11-07T05:44:36.017Z,99.90
2018-11-07T05:47:05.481Z,99.90
2018-11-07T05:49:34.641Z,99.90
2018-11-07T05:52:03.854Z,99.90
2018-11-07T05:54:32.983Z,99.90
2018-11-07T05:57:02.178Z,99.90
2018-11-07T05:59:31.354Z,99.90
2018-11-07T06:02:00.536Z,99.90
2018-11-07T06:04:29.748Z,99.90
2018-11-07T06:06:58.889Z,99.90
2018-11-07T06:09:28.087Z,99.90
2018-11-07T06:11:57.263Z,99.90
2018-11-07T06:14:26.461Z,99.90
2018-11-07T06:16:55.645Z,99.90
2018-11-07T06:19:24.839Z,99.90
2018-11-07T06:21:54.038Z,99.90
2018-11-07T06:24:23.297Z,99.90
2018-11-07T06:26:52.454Z,99.90
2018-11-07T06:29:21.668Z,99.90
2018-11-07T06:31:50.877Z,99.90
2018-11-07T06:34:20.081Z,99.90
2018-11-07T06:36:49.323Z,99.90
2018-11-07T06:39:18.615Z,99.90
2018-11-07T06:41:47.830Z,99.90
2018-11-07T06:44:17.015Z,99.90
2018-11-07T06:46:46.230Z,99.90
2018-11-07T06:49:15.426Z,99.90
2018-11-07T06:51:44.616Z,99.90
2018-11-07T06:54:13.917Z,99.90
2018-11-07T06:56:43.126Z,99.90
2018-11-07T06:59:12.318Z,99.90
2018-11-07T07:01:41.572Z,99.90
2018-11-07T07:04:10.784Z,99.90
2018-11-07T07:06:40.047Z,99.90
2018-11-07T07:09:10.141Z,99.90
2018-11-07T07:11:39.921Z,99.90
2018-11-07T07:14:09.218Z,99.90
2018-11-07T07:16:38.382Z,99.90
2018-11-07T07:19:07.601Z,99.90
2018-11-07T07:21:36.861Z,99.90
2018-11-07T07:24:06.079Z,99.90
2018-11-07T07:26:35.334Z,99.90
2018-11-07T07:29:05.329Z,99.90
2018-11-07T07:31:34.519Z,99.90
2018-11-07T07:34:03.771Z,99.90
2018-11-07T07:39:21.953Z,99.90
2018-11-07T07:41:51.255Z,99.90
2018-11-07T07:44:20.446Z,99.90
2018-11-07T07:46:49.718Z,99.90
2018-11-07T07:49:18.969Z,99.90
2018-11-07T07:51:48.112Z,99.90
2018-11-07T07:54:17.445Z,99.90
2018-11-07T07:56:46.674Z,99.90
2018-11-07T07:59:15.857Z,99.90
2018-11-07T08:01:45.059Z,99.90
2018-11-07T08:04:14.241Z,99.90
2018-11-07T08:06:43.417Z,99.90
2018-11-07T08:09:13.809Z,99.90
2018-11-07T08:11:42.954Z,99.90
2018-11-07T08:14:12.112Z,99.90
2018-11-07T08:16:41.323Z,99.90
2018-11-07T08:19:10.508Z,99.90
2018-11-07T08:21:39.659Z,99.90
2018-11-07T08:24:08.819Z,99.90
2018-11-07T08:26:38.065Z,99.90
2018-11-07T08:29:07.227Z,99.90
2018-11-07T08:31:36.453Z,99.90
2018-11-07T08:34:06.688Z,99.90
2018-11-07T08:36:35.892Z,99.90
2018-11-07T08:39:08.035Z,99.90
2018-11-07T08:41:37.178Z,99.90
2018-11-07T08:44:06.794Z,99.90
2018-11-07T08:46:35.924Z,99.90
2018-11-07T08:49:05.330Z,99.90
2018-11-07T08:51:34.507Z,99.90
2018-11-07T08:54:03.834Z,99.90
2018-11-07T08:56:34.143Z,99.90
2018-11-07T08:59:03.366Z,99.90
2018-11-07T09:04:03.046Z,99.90
2018-11-07T09:06:32.319Z,99.90
2018-11-07T09:09:01.575Z,99.90
2018-11-07T09:11:30.846Z,99.90
2018-11-07T09:14:05.563Z,99.90
2018-11-07T09:16:40.271Z,99.90
2018-11-07T09:19:14.877Z,99.90
2018-11-07T09:21:49.522Z,99.90
2018-11-07T09:24:18.734Z,99.90
2018-11-07T09:26:47.951Z,99.90
2018-11-07T09:29:17.292Z,99.90
2018-11-07T09:31:46.578Z,99.90
2018-11-07T09:34:15.778Z,99.90
2018-11-07T09:36:44.966Z,99.90
2018-11-07T09:39:14.228Z,99.90
2018-11-07T09:41:44.140Z,99.90
2018-11-07T09:44:13.054Z,99.90
2018-11-07T09:46:42.859Z,99.90
2018-11-07T09:49:12.866Z,99.90
2018-11-07T09:51:42.085Z,99.90
2018-11-07T09:54:11.390Z,99.90
2018-11-07T09:56:40.514Z,99.90
2018-11-07T09:59:09.689Z,99.90
2018-11-07T10:01:38.856Z,99.60
2018-11-07T10:04:08.014Z,99.40
2018-11-07T10:06:37.199Z,99.40
2018-11-07T10:09:08.384Z,99.30
2018-11-07T10:11:37.541Z,99.30
2018-11-07T10:14:07.093Z,99.10
2018-11-07T10:16:36.550Z,98.90
2018-11-07T10:19:06.109Z,98.90
2018-11-07T10:21:35.317Z,99.40
2018-11-07T10:24:04.510Z,99.20
2018-11-07T10:26:33.810Z,98.70
2018-11-07T10:29:03.066Z,98.50
2018-11-07T10:31:32.154Z,98.40
2018-11-07T10:34:01.298Z,98.30
2018-11-07T10:36:30.573Z,98.20
2018-11-07T10:38:59.823Z,98.00
2018-11-07T10:41:29.098Z,97.90
2018-11-07T10:43:58.327Z,97.90
2018-11-07T10:46:27.562Z,97.70
2018-11-07T10:48:56.800Z,97.50
2018-11-07T10:51:25.923Z,97.40
2018-11-07T10:53:55.048Z,97.20
2018-11-07T10:56:24.214Z,97.00
2018-11-07T10:58:53.366Z,96.90
2018-11-07T11:01:27.908Z,96.80
2018-11-07T11:03:57.166Z,96.70
2018-11-07T11:06:26.345Z,96.50
2018-11-07T11:08:55.542Z,96.40
2018-11-07T11:11:24.830Z,96.20
2018-11-07T11:13:53.970Z,95.90
2018-11-07T11:16:23.157Z,95.90
2018-11-07T11:18:52.379Z,95.80
2018-11-07T11:21:21.566Z,95.60
2018-11-07T11:23:51.179Z,95.40
2018-11-07T11:26:20.377Z,95.20
2018-11-07T11:28:49.657Z,94.80
2018-11-07T11:31:18.817Z,94.80
2018-11-07T11:33:48.091Z,94.40
2018-11-07T11:36:17.302Z,94.00
2018-11-07T11:38:46.824Z,93.90
2018-11-07T11:41:16.182Z,93.70
2018-11-07T11:43:45.228Z,93.60
2018-11-07T11:46:14.523Z,93.30
2018-11-07T11:48:43.677Z,93.10
2018-11-07T11:51:13.032Z,93.00
2018-11-07T11:53:42.347Z,92.90
2018-11-07T11:56:11.513Z,92.60
2018-11-07T11:58:40.821Z,92.50
2018-11-07T12:01:10.018Z,92.20
2018-11-07T12:03:39.191Z,92.10
2018-11-07T12:06:08.357Z,92.10
2018-11-07T12:08:37.582Z,92.20
2018-11-07T12:11:06.712Z,91.90
2018-11-07T12:13:35.908Z,91.90
2018-11-07T12:16:05.833Z,91.40
2018-11-07T12:18:35.018Z,91.30
2018-11-07T12:21:04.259Z,91.30
2018-11-07T12:23:33.506Z,91.10
2018-11-07T12:26:02.479Z,90.90
2018-11-07T12:28:31.735Z,90.80
2018-11-07T12:31:01.659Z,90.70
2018-11-07T12:33:31.545Z,90.90
2018-11-07T12:36:00.761Z,90.50
2018-11-07T12:38:30.171Z,90.20
2018-11-07T12:40:59.463Z,90.30
2018-11-07T12:43:28.677Z,90.40
2018-11-07T12:45:58.138Z,90.00
2018-11-07T12:48:27.368Z,90.10
2018-11-07T12:50:56.550Z,90.00
2018-11-07T12:53:25.684Z,90.00
2018-11-07T12:55:54.946Z,90.00
2018-11-07T12:58:24.310Z,90.00
2018-11-07T13:00:53.339Z,90.00
2018-11-07T13:03:22.571Z,90.30
2018-11-07T13:05:51.787Z,90.00
2018-11-07T13:08:20.970Z,89.80
2018-11-07T13:10:50.266Z,89.90
2018-11-07T13:13:19.443Z,90.10
2018-11-07T13:15:48.612Z,90.10
2018-11-07T13:18:17.821Z,90.10
2018-11-07T13:20:47.007Z,90.00
2018-11-07T13:23:16.477Z,90.20
2018-11-07T13:25:45.657Z,89.90
2018-11-07T13:28:14.858Z,90.00
2018-11-07T13:30:44.001Z,90.60
2018-11-07T13:33:13.193Z,90.80
2018-11-07T13:35:42.413Z,90.20
2018-11-07T13:38:11.784Z,90.30
2018-11-07T13:40:40.789Z,90.30
2018-11-07T13:43:10.082Z,91.10
2018-11-07T13:45:39.301Z,90.70
2018-11-07T13:48:08.463Z,90.90
2018-11-07T13:50:37.885Z,90.90
2018-11-07T13:53:07.161Z,91.00
2018-11-07T13:55:36.674Z,90.80
2018-11-07T13:58:05.948Z,91.10
2018-11-07T14:00:35.091Z,91.40
2018-11-07T14:03:04.502Z,91.30
2018-11-07T14:05:33.763Z,91.30
2018-11-07T14:08:02.933Z,91.30
2018-11-07T14:10:32.338Z,91.30
2018-11-07T14:13:01.533Z,91.40
2018-11-07T14:15:30.715Z,91.40
2018-11-07T14:17:59.889Z,91.60
2018-11-07T14:20:29.100Z,91.60
2018-11-07T14:22:58.290Z,91.70
2018-11-07T14:25:27.410Z,91.70
2018-11-07T14:27:56.821Z,91.80
2018-11-07T14:30:25.887Z,92.00
2018-11-07T14:32:58.316Z,91.80
2018-11-07T14:35:30.416Z,92.20
2018-11-07T14:37:59.635Z,92.60
2018-11-07T14:40:28.810Z,92.30
2018-11-07T14:42:58.005Z,92.10
2018-11-07T14:45:27.221Z,92.20
2018-11-07T14:47:56.441Z,92.60
2018-11-07T14:50:25.614Z,92.80
2018-11-07T14:52:54.863Z,93.30
2018-11-07T14:55:24.167Z,93.40
2018-11-07T14:57:53.363Z,92.70
2018-11-07T15:00:22.609Z,92.90
2018-11-07T15:02:51.907Z,92.70
2018-11-07T15:05:21.125Z,92.90
2018-11-07T15:07:50.255Z,92.70
2018-11-07T15:10:20.951Z,93.10
2018-11-07T15:12:50.241Z,93.20
2018-11-07T15:15:19.977Z,94.00
2018-11-07T15:17:49.178Z,93.80
2018-11-07T15:20:18.663Z,94.00
2018-11-07T15:22:47.954Z,94.30
2018-11-07T15:25:17.890Z,94.50
2018-11-07T15:27:47.720Z,94.70
2018-11-07T15:30:17.509Z,94.70
2018-11-07T15:32:47.042Z,94.80
2018-11-07T15:35:16.237Z,95.10
2018-11-07T15:37:45.415Z,95.10
2018-11-07T15:40:15.852Z,95.30
2018-11-07T15:42:45.719Z,95.40
2018-11-07T15:45:16.323Z,95.40
2018-11-07T15:47:45.652Z,95.60
2018-11-07T15:50:20.258Z,95.90
2018-11-07T15:52:50.053Z,96.00
2018-11-07T15:55:19.858Z,96.20
2018-11-07T15:57:49.074Z,96.20
2018-11-07T16:00:18.979Z,96.30
2018-11-07T16:02:48.273Z,96.30
2018-11-07T16:05:17.748Z,96.30
2018-11-07T16:07:47.058Z,96.40
2018-11-07T16:10:16.735Z,96.40
2018-11-07T16:12:45.868Z,96.50
2018-11-07T16:15:16.466Z,96.70
2018-11-07T16:17:45.982Z,96.80
2018-11-07T16:20:17.562Z,96.80
2018-11-07T16:22:47.451Z,96.90
2018-11-07T16:25:16.709Z,96.90
2018-11-07T16:27:46.366Z,96.90
2018-11-07T16:30:19.013Z,97.00
2018-11-07T16:32:48.235Z,97.20
2018-11-07T16:35:17.427Z,97.20
2018-11-07T16:37:46.764Z,97.30
2018-11-07T16:40:17.370Z,97.60
2018-11-07T16:42:46.917Z,97.70
2018-11-07T16:45:17.020Z,97.70
2018-11-07T16:47:46.411Z,97.70
2018-11-07T16:50:16.773Z,97.70
2018-11-07T16:52:46.436Z,97.80
2018-11-07T16:55:16.662Z,97.90
2018-11-07T16:57:52.709Z,97.90
2018-11-07T17:00:22.176Z,98.00
2018-11-07T17:02:51.345Z,98.00
2018-11-07T17:05:20.631Z,98.00
2018-11-07T17:07:49.811Z,98.10
2018-11-07T17:10:19.002Z,98.20
2018-11-07T17:12:48.201Z,98.30
2018-11-07T17:15:17.362Z,98.30
2018-11-07T17:17:46.594Z,98.60
2018-11-07T17:20:16.309Z,98.30
2018-11-07T17:22:45.515Z,98.20
2018-11-07T17:25:16.282Z,98.20
2018-11-07T17:27:45.583Z,98.20
2018-11-07T17:30:15.888Z,98.30
2018-11-07T17:32:45.087Z,98.30
2018-11-07T17:35:16.034Z,98.30
2018-11-07T17:37:45.838Z,98.30
2018-11-07T17:40:20.482Z,98.50
2018-11-07T17:42:49.991Z,98.50
2018-11-07T17:45:20.598Z,98.70
2018-11-07T17:47:50.774Z,98.70
2018-11-07T17:50:20.753Z,98.60
2018-11-07T17:52:50.671Z,98.60
2018-11-07T17:55:20.793Z,98.70
2018-11-07T17:57:50.144Z,98.60
2018-11-07T18:00:22.559Z,98.80
2018-11-07T18:02:53.753Z,98.80
2018-11-07T18:05:27.291Z,98.80
2018-11-07T18:07:58.886Z,99.00
2018-11-07T18:10:30.246Z,98.90
2018-11-07T18:13:01.523Z,99.00
2018-11-07T18:15:32.841Z,98.90
2018-11-07T18:18:04.159Z,98.80
2018-11-07T18:20:34.094Z,99.10
2018-11-07T18:23:05.107Z,99.30
2018-11-07T18:25:36.256Z,99.30
2018-11-07T18:28:07.503Z,99.10
2018-11-07T18:30:36.836Z,99.00
2018-11-07T18:33:06.074Z,99.00
2018-11-07T18:35:35.644Z,99.00
2018-11-07T18:38:05.110Z,98.90
2018-11-07T18:40:35.505Z,99.00
2018-11-07T18:43:04.901Z,99.10
2018-11-07T18:45:34.056Z,99.20
2018-11-07T18:48:03.329Z,99.30
2018-11-07T18:50:32.593Z,99.40
2018-11-07T18:53:01.808Z,99.20
2018-11-07T18:55:30.978Z,99.10
2018-11-07T18:58:00.320Z,99.20
2018-11-07T19:00:29.674Z,99.00
2018-11-07T19:02:58.842Z,99.30
2018-11-07T19:05:28.148Z,99.30
2018-11-07T19:07:57.311Z,99.30
2018-11-07T19:10:26.512Z,99.30
2018-11-07T19:12:56.069Z,99.40
2018-11-07T19:15:25.234Z,99.40
2018-11-07T19:17:54.645Z,99.80
2018-11-07T19:20:23.950Z,99.30
2018-11-07T19:22:53.043Z,99.10
2018-11-07T19:25:22.263Z,99.10
2018-11-07T19:27:58.027Z,99.20
2018-11-07T19:30:27.341Z,99.30
2018-11-07T19:32:56.537Z,99.40
2018-11-07T19:35:25.718Z,99.20
2018-11-07T19:37:55.014Z,99.10
2018-11-07T19:40:25.522Z,99.10
2018-11-07T19:42:54.621Z,99.30
2018-11-07T19:45:24.501Z,99.30
2018-11-07T19:47:53.738Z,99.30
2018-11-07T19:50:23.412Z,99.40
2018-11-07T19:52:53.156Z,99.60
2018-11-07T19:55:24.169Z,99.70
2018-11-07T19:58:00.644Z,99.80
2018-11-07T20:00:29.878Z,99.60
2018-11-07T20:02:59.106Z,99.40
2018-11-07T20:05:28.314Z,99.50
2018-11-07T20:07:57.545Z,99.40
2018-11-07T20:10:26.924Z,99.40
2018-11-07T20:12:56.542Z,99.50
2018-11-07T20:15:25.919Z,99.30
2018-11-07T20:17:55.185Z,99.20
2018-11-07T20:20:24.447Z,99.20
2018-11-07T20:22:53.749Z,99.20
2018-11-07T20:25:22.830Z,99.10
2018-11-07T20:27:52.120Z,99.30
2018-11-07T20:30:22.450Z,99.10
2018-11-07T20:32:51.736Z,98.70
2018-11-07T20:35:21.544Z,98.90
2018-11-07T20:37:50.707Z,98.70
2018-11-07T20:40:21.142Z,98.60
2018-11-07T20:42:50.390Z,98.80
2018-11-07T20:45:20.157Z,98.60
2018-11-07T20:47:49.658Z,98.70
2018-11-07T20:50:20.345Z,98.70
2018-11-07T20:52:49.930Z,98.80
2018-11-07T20:55:19.220Z,98.80
2018-11-07T20:57:48.445Z,98.90
2018-11-07T21:00:22.057Z,98.90
2018-11-07T21:02:51.652Z,99.00
2018-11-07T21:05:20.930Z,99.00
2018-11-07T21:07:50.166Z,99.10
2018-11-07T21:10:20.474Z,99.10
2018-11-07T21:12:50.167Z,99.20
2018-11-07T21:15:21.022Z,99.20
2018-11-07T21:17:50.261Z,99.30
2018-11-07T21:20:19.890Z,99.30
2018-11-07T21:22:49.152Z,99.20
2018-11-07T21:25:18.397Z,99.30
2018-11-07T21:27:47.650Z,99.30
2018-11-07T21:30:16.835Z,99.20
2018-11-07T21:32:46.047Z,99.30
2018-11-07T21:35:15.320Z,99.40
2018-11-07T21:37:44.484Z,99.30
2018-11-07T21:40:15.831Z,99.60
2018-11-07T21:42:46.051Z,99.50
2018-11-07T21:45:15.807Z,99.40
2018-11-07T21:47:45.126Z,99.40
2018-11-07T21:50:15.970Z,99.40
2018-11-07T21:52:45.265Z,99.50
2018-11-07T21:55:14.571Z,99.50
2018-11-07T21:57:43.867Z,99.60
2018-11-07T22:00:17.150Z,99.70
2018-11-07T22:02:46.543Z,99.80
2018-11-07T22:05:16.553Z,99.90
2018-11-07T22:07:45.826Z,99.90
2018-11-07T22:10:16.695Z,99.90
2018-11-07T22:12:45.914Z,99.90
2018-11-07T22:15:15.235Z,99.90
2018-11-07T22:17:44.480Z,99.90
2018-11-07T22:20:17.551Z,99.90
2018-11-07T22:22:46.762Z,99.90
2018-11-07T22:25:22.498Z,99.90
2018-11-07T22:27:51.808Z,99.90
2018-11-07T22:30:20.990Z,99.90
2018-11-07T22:32:50.257Z,99.90
2018-11-07T22:35:19.490Z,99.90
2018-11-07T22:37:48.715Z,99.90
2018-11-07T22:40:19.172Z,99.90
2018-11-07T22:42:48.455Z,99.90
2018-11-07T22:45:17.735Z,99.90
2018-11-07T22:47:46.950Z,99.90
2018-11-07T22:50:16.558Z,99.90
2018-11-07T22:52:46.162Z,99.90
2018-11-07T22:55:15.353Z,99.90
2018-11-07T22:57:44.541Z,99.90
2018-11-07T23:00:20.347Z,99.90
2018-11-07T23:02:51.393Z,99.90
2018-11-07T23:05:20.593Z,99.90
2018-11-07T23:07:50.351Z,99.90
2018-11-07T23:10:19.526Z,99.90
2018-11-07T23:12:49.153Z,99.90
2018-11-07T23:15:23.623Z,99.90
2018-11-07T23:17:52.778Z,99.90
2018-11-07T23:20:22.025Z,99.90
2018-11-07T23:22:51.201Z,99.90
2018-11-07T23:25:20.425Z,99.90
2018-11-07T23:27:49.610Z,99.90
2018-11-07T23:30:18.827Z,99.90
2018-11-07T23:32:48.029Z,99.90
2018-11-07T23:35:17.234Z,99.90
2018-11-07T23:37:46.401Z,99.90
2018-11-07T23:40:15.623Z,99.90
2018-11-07T23:42:44.852Z,99.90
2018-11-07T23:45:14.037Z,99.90
2018-11-07T23:47:43.218Z,99.90
2018-11-07T23:50:12.430Z,99.90
2018-11-07T23:52:47.026Z,99.90
2018-11-07T23:55:17.492Z,99.90
2018-11-07T23:57:46.789Z,99.90
